sensor_id;sensor_type;location;lat;lon;timestamp;pressure;altitude;pressure_sealevel;temperature;humidity
50310;BME280;36207;51.850;21.698;2022-11-28T00:02:23;100933.91;;;2.20;83.52
50310;BME280;36207;51.850;21.698;2022-11-28T00:04:51;100935.58;;;2.17;83.63
50310;BME280;36207;51.850;21.698;2022-11-28T00:07:17;100936.23;;;2.20;83.74
50310;BME280;36207;51.850;21.698;2022-11-28T00:09:43;100937.23;;;2.23;83.71
50310;BME280;36207;51.850;21.698;2022-11-28T00:12:09;100937.63;;;2.25;83.82
50310;BME280;36207;51.850;21.698;2022-11-28T00:14:36;100936.36;;;2.29;83.70
50310;BME280;36207;51.850;21.698;2022-11-28T00:17:02;100933.21;;;2.34;83.78
50310;BME280;36207;51.850;21.698;2022-11-28T00:19:28;100934.00;;;2.38;83.63
50310;BME280;36207;51.850;21.698;2022-11-28T00:21:54;100933.75;;;2.39;83.65
50310;BME280;36207;51.850;21.698;2022-11-28T00:24:21;100931.44;;;2.39;83.70
50310;BME280;36207;51.850;21.698;2022-11-28T00:26:47;100931.83;;;2.41;83.72
50310;BME280;36207;51.850;21.698;2022-11-28T00:29:13;100932.53;;;2.44;83.65
50310;BME280;36207;51.850;21.698;2022-11-28T00:31:40;100932.80;;;2.44;83.52
50310;BME280;36207;51.850;21.698;2022-11-28T00:34:12;100932.72;;;2.43;83.53
50310;BME280;36207;51.850;21.698;2022-11-28T00:36:39;100931.27;;;2.44;83.60
50310;BME280;36207;51.850;21.698;2022-11-28T00:39:06;100933.09;;;2.46;83.60
50310;BME280;36207;51.850;21.698;2022-11-28T00:41:32;100933.84;;;2.50;83.76
50310;BME280;36207;51.850;21.698;2022-11-28T00:44:00;100926.92;;;2.51;83.63
50310;BME280;36207;51.850;21.698;2022-11-28T00:46:26;100929.92;;;2.51;83.58
50310;BME280;36207;51.850;21.698;2022-11-28T00:48:53;100926.14;;;2.50;83.42
50310;BME280;36207;51.850;21.698;2022-11-28T00:51:25;100924.46;;;2.49;83.46
50310;BME280;36207;51.850;21.698;2022-11-28T00:53:54;100923.27;;;2.48;83.64
50310;BME280;36207;51.850;21.698;2022-11-28T00:56:27;100920.25;;;2.51;83.49
50310;BME280;36207;51.850;21.698;2022-11-28T00:58:53;100920.70;;;2.52;83.33
50310;BME280;36207;51.850;21.698;2022-11-28T01:01:26;100923.19;;;2.49;83.30
50310;BME280;36207;51.850;21.698;2022-11-28T01:03:55;100918.82;;;2.46;83.21
50310;BME280;36207;51.850;21.698;2022-11-28T01:08:53;100917.64;;;2.43;83.20
50310;BME280;36207;51.850;21.698;2022-11-28T01:11:20;100918.77;;;2.42;83.22
50310;BME280;36207;51.850;21.698;2022-11-28T01:13:47;100919.77;;;2.42;83.33
50310;BME280;36207;51.850;21.698;2022-11-28T01:16:14;100921.79;;;2.44;83.24
50310;BME280;36207;51.850;21.698;2022-11-28T01:18:40;100924.67;;;2.43;83.22
50310;BME280;36207;51.850;21.698;2022-11-28T01:21:07;100924.48;;;2.41;83.16
50310;BME280;36207;51.850;21.698;2022-11-28T01:23:34;100925.40;;;2.40;83.29
50310;BME280;36207;51.850;21.698;2022-11-28T01:26:02;100924.45;;;2.41;83.32
50310;BME280;36207;51.850;21.698;2022-11-28T01:28:29;100925.70;;;2.43;83.35
50310;BME280;36207;51.850;21.698;2022-11-28T01:30:55;100924.00;;;2.48;83.32
50310;BME280;36207;51.850;21.698;2022-11-28T01:33:21;100919.33;;;2.49;83.30
50310;BME280;36207;51.850;21.698;2022-11-28T01:35:55;100917.33;;;2.48;83.18
50310;BME280;36207;51.850;21.698;2022-11-28T01:38:22;100916.63;;;2.45;83.20
50310;BME280;36207;51.850;21.698;2022-11-28T01:40:49;100915.64;;;2.44;83.37
50310;BME280;36207;51.850;21.698;2022-11-28T01:43:16;100908.21;;;2.44;83.35
50310;BME280;36207;51.850;21.698;2022-11-28T01:45:43;100906.52;;;2.44;83.39
50310;BME280;36207;51.850;21.698;2022-11-28T01:48:17;100905.60;;;2.42;83.24
50310;BME280;36207;51.850;21.698;2022-11-28T01:50:46;100900.49;;;2.39;83.14
50310;BME280;36207;51.850;21.698;2022-11-28T01:53:15;100899.73;;;2.37;83.27
50310;BME280;36207;51.850;21.698;2022-11-28T01:56:08;100897.77;;;2.35;83.26
50310;BME280;36207;51.850;21.698;2022-11-28T01:58:35;100898.11;;;2.33;83.17
50310;BME280;36207;51.850;21.698;2022-11-28T02:01:05;100895.23;;;2.32;83.31
50310;BME280;36207;51.850;21.698;2022-11-28T02:03:40;100892.64;;;2.31;83.26
50310;BME280;36207;51.850;21.698;2022-11-28T02:06:10;100887.86;;;2.29;83.22
50310;BME280;36207;51.850;21.698;2022-11-28T02:08:38;100886.18;;;2.28;83.28
50310;BME280;36207;51.850;21.698;2022-11-28T02:16:56;100875.59;;;2.20;83.30
50310;BME280;36207;51.850;21.698;2022-11-28T02:19:52;100871.65;;;2.19;83.44
50310;BME280;36207;51.850;21.698;2022-11-28T02:22:40;100870.11;;;2.16;83.45
50310;BME280;36207;51.850;21.698;2022-11-28T02:30:22;100870.27;;;2.16;83.73
50310;BME280;36207;51.850;21.698;2022-11-28T02:32:59;100869.80;;;2.18;83.60
50310;BME280;36207;51.850;21.698;2022-11-28T02:46:46;100863.20;;;2.42;83.89
50310;BME280;36207;51.850;21.698;2022-11-28T02:49:21;100865.02;;;2.46;83.73
50310;BME280;36207;51.850;21.698;2022-11-28T02:51:53;100865.83;;;2.48;83.73
50310;BME280;36207;51.850;21.698;2022-11-28T02:54:21;100863.14;;;2.45;83.52
50310;BME280;36207;51.850;21.698;2022-11-28T02:56:50;100862.43;;;2.43;83.62
50310;BME280;36207;51.850;21.698;2022-11-28T03:02:22;100860.55;;;2.45;83.71
50310;BME280;36207;51.850;21.698;2022-11-28T03:04:59;100861.44;;;2.45;83.66
50310;BME280;36207;51.850;21.698;2022-11-28T03:07:53;100859.90;;;2.44;83.87
50310;BME280;36207;51.850;21.698;2022-11-28T03:13:52;100856.08;;;2.41;83.83
50310;BME280;36207;51.850;21.698;2022-11-28T03:19:29;100856.65;;;2.43;83.72
50310;BME280;36207;51.850;21.698;2022-11-28T03:22:11;100859.39;;;2.42;83.69
50310;BME280;36207;51.850;21.698;2022-11-28T03:24:48;100857.30;;;2.39;83.80
50310;BME280;36207;51.850;21.698;2022-11-28T03:27:23;100856.27;;;2.36;83.76
50310;BME280;36207;51.850;21.698;2022-11-28T03:29:57;100856.70;;;2.35;83.70
50310;BME280;36207;51.850;21.698;2022-11-28T03:32:29;100860.14;;;2.33;83.77
50310;BME280;36207;51.850;21.698;2022-11-28T03:35:16;100854.39;;;2.28;83.59
50310;BME280;36207;51.850;21.698;2022-11-28T03:37:47;100852.83;;;2.24;83.67
50310;BME280;36207;51.850;21.698;2022-11-28T03:40:18;100853.02;;;2.24;83.72
50310;BME280;36207;51.850;21.698;2022-11-28T03:43:01;100851.69;;;2.23;83.62
50310;BME280;36207;51.850;21.698;2022-11-28T03:45:50;100849.60;;;2.23;83.76
50310;BME280;36207;51.850;21.698;2022-11-28T03:48:24;100846.98;;;2.25;83.79
50310;BME280;36207;51.850;21.698;2022-11-28T03:50:58;100844.88;;;2.28;83.78
50310;BME280;36207;51.850;21.698;2022-11-28T03:53:30;100842.70;;;2.26;83.75
50310;BME280;36207;51.850;21.698;2022-11-28T03:56:14;100842.73;;;2.23;83.56
50310;BME280;36207;51.850;21.698;2022-11-28T03:58:48;100844.35;;;2.17;83.52
50310;BME280;36207;51.850;21.698;2022-11-28T04:04:15;100839.52;;;2.06;83.61
50310;BME280;36207;51.850;21.698;2022-11-28T04:07:03;100841.90;;;2.02;83.58
50310;BME280;36207;51.850;21.698;2022-11-28T04:09:55;100839.77;;;1.96;83.60
50310;BME280;36207;51.850;21.698;2022-11-28T04:15:09;100844.78;;;1.90;83.66
50310;BME280;36207;51.850;21.698;2022-11-28T04:17:43;100846.64;;;1.87;83.79
50310;BME280;36207;51.850;21.698;2022-11-28T04:20:22;100846.55;;;1.88;83.85
50310;BME280;36207;51.850;21.698;2022-11-28T04:22:55;100841.61;;;1.88;83.96
50310;BME280;36207;51.850;21.698;2022-11-28T04:25:24;100840.48;;;1.86;83.79
50310;BME280;36207;51.850;21.698;2022-11-28T04:28:00;100842.61;;;1.86;83.90
50310;BME280;36207;51.850;21.698;2022-11-28T04:30:28;100841.27;;;1.83;83.90
50310;BME280;36207;51.850;21.698;2022-11-28T04:33:00;100839.13;;;1.83;83.96
50310;BME280;36207;51.850;21.698;2022-11-28T04:35:31;100840.02;;;1.86;83.93
50310;BME280;36207;51.850;21.698;2022-11-28T04:37:59;100838.75;;;1.83;83.87
50310;BME280;36207;51.850;21.698;2022-11-28T04:40:28;100835.86;;;1.82;83.96
50310;BME280;36207;51.850;21.698;2022-11-28T04:43:20;100835.14;;;1.77;84.08
50310;BME280;36207;51.850;21.698;2022-11-28T04:45:53;100832.89;;;1.71;83.98
50310;BME280;36207;51.850;21.698;2022-11-28T04:48:21;100837.38;;;1.70;84.18
50310;BME280;36207;51.850;21.698;2022-11-28T04:50:53;100837.26;;;1.61;84.33
50310;BME280;36207;51.850;21.698;2022-11-28T04:53:35;100837.03;;;1.56;84.18
50310;BME280;36207;51.850;21.698;2022-11-28T04:56:10;100837.69;;;1.54;84.41
50310;BME280;36207;51.850;21.698;2022-11-28T04:58:43;100839.83;;;1.51;84.37
50310;BME280;36207;51.850;21.698;2022-11-28T05:01:16;100836.66;;;1.51;84.59
50310;BME280;36207;51.850;21.698;2022-11-28T05:03:45;100831.68;;;1.49;84.50
50310;BME280;36207;51.850;21.698;2022-11-28T05:06:24;100831.28;;;1.48;84.60
50310;BME280;36207;51.850;21.698;2022-11-28T05:08:51;100833.46;;;1.44;84.51
50310;BME280;36207;51.850;21.698;2022-11-28T05:11:18;100830.09;;;1.47;84.75
50310;BME280;36207;51.850;21.698;2022-11-28T05:13:44;100832.81;;;1.43;84.97
50310;BME280;36207;51.850;21.698;2022-11-28T05:16:11;100834.10;;;1.40;84.66
50310;BME280;36207;51.850;21.698;2022-11-28T05:18:39;100839.83;;;1.41;84.99
50310;BME280;36207;51.850;21.698;2022-11-28T05:21:06;100837.98;;;1.37;84.77
50310;BME280;36207;51.850;21.698;2022-11-28T05:23:38;100838.76;;;1.38;84.72
50310;BME280;36207;51.850;21.698;2022-11-28T05:26:23;100840.98;;;1.37;84.72
50310;BME280;36207;51.850;21.698;2022-11-28T05:28:51;100839.59;;;1.33;84.73
50310;BME280;36207;51.850;21.698;2022-11-28T05:31:19;100841.59;;;1.32;84.65
50310;BME280;36207;51.850;21.698;2022-11-28T05:33:46;100842.27;;;1.32;84.91
50310;BME280;36207;51.850;21.698;2022-11-28T05:36:13;100841.20;;;1.30;84.92
50310;BME280;36207;51.850;21.698;2022-11-28T05:38:42;100846.24;;;1.28;84.82
50310;BME280;36207;51.850;21.698;2022-11-28T05:41:17;100847.98;;;1.31;84.91
50310;BME280;36207;51.850;21.698;2022-11-28T05:43:43;100846.27;;;1.36;84.84
50310;BME280;36207;51.850;21.698;2022-11-28T05:46:10;100847.14;;;1.36;84.86
50310;BME280;36207;51.850;21.698;2022-11-28T05:48:36;100851.12;;;1.31;84.76
50310;BME280;36207;51.850;21.698;2022-11-28T05:51:03;100841.55;;;1.30;84.92
50310;BME280;36207;51.850;21.698;2022-11-28T05:53:30;100843.30;;;1.32;84.85
50310;BME280;36207;51.850;21.698;2022-11-28T05:55:56;100842.77;;;1.33;84.74
50310;BME280;36207;51.850;21.698;2022-11-28T05:58:22;100841.27;;;1.35;84.84
50310;BME280;36207;51.850;21.698;2022-11-28T06:00:48;100841.56;;;1.38;84.75
50310;BME280;36207;51.850;21.698;2022-11-28T06:03:15;100840.31;;;1.41;84.98
50310;BME280;36207;51.850;21.698;2022-11-28T06:05:42;100840.44;;;1.45;85.03
50310;BME280;36207;51.850;21.698;2022-11-28T06:08:10;100839.29;;;1.49;85.11
50310;BME280;36207;51.850;21.698;2022-11-28T06:10:37;100840.49;;;1.54;85.11
50310;BME280;36207;51.850;21.698;2022-11-28T06:13:04;100842.92;;;1.58;85.08
50310;BME280;36207;51.850;21.698;2022-11-28T06:15:31;100844.71;;;1.60;85.15
50310;BME280;36207;51.850;21.698;2022-11-28T06:17:57;100841.29;;;1.64;85.20
50310;BME280;36207;51.850;21.698;2022-11-28T06:20:24;100845.11;;;1.69;85.19
50310;BME280;36207;51.850;21.698;2022-11-28T06:22:50;100845.92;;;1.76;85.10
50310;BME280;36207;51.850;21.698;2022-11-28T06:25:16;100849.32;;;1.77;85.14
50310;BME280;36207;51.850;21.698;2022-11-28T06:27:42;100850.40;;;1.80;84.92
50310;BME280;36207;51.850;21.698;2022-11-28T06:30:09;100849.65;;;1.83;85.03
50310;BME280;36207;51.850;21.698;2022-11-28T06:32:35;100847.88;;;1.86;84.98
50310;BME280;36207;51.850;21.698;2022-11-28T06:35:02;100850.02;;;1.88;84.97
50310;BME280;36207;51.850;21.698;2022-11-28T06:37:28;100849.27;;;1.86;84.95
50310;BME280;36207;51.850;21.698;2022-11-28T06:39:54;100849.06;;;1.84;85.03
50310;BME280;36207;51.850;21.698;2022-11-28T06:42:20;100846.05;;;1.82;85.00
50310;BME280;36207;51.850;21.698;2022-11-28T06:44:46;100844.22;;;1.78;84.90
50310;BME280;36207;51.850;21.698;2022-11-28T06:47:13;100845.29;;;1.75;84.92
50310;BME280;36207;51.850;21.698;2022-11-28T06:49:39;100845.44;;;1.73;85.09
50310;BME280;36207;51.850;21.698;2022-11-28T06:52:05;100846.05;;;1.66;85.22
50310;BME280;36207;51.850;21.698;2022-11-28T06:54:31;100842.65;;;1.61;85.34
50310;BME280;36207;51.850;21.698;2022-11-28T06:56:57;100839.74;;;1.61;85.45
50310;BME280;36207;51.850;21.698;2022-11-28T06:59:24;100840.84;;;1.60;85.54
50310;BME280;36207;51.850;21.698;2022-11-28T07:01:50;100840.55;;;1.56;85.47
50310;BME280;36207;51.850;21.698;2022-11-28T07:04:16;100843.27;;;1.55;85.56
50310;BME280;36207;51.850;21.698;2022-11-28T07:06:42;100843.09;;;1.58;85.61
50310;BME280;36207;51.850;21.698;2022-11-28T07:09:09;100841.83;;;1.63;85.87
50310;BME280;36207;51.850;21.698;2022-11-28T07:11:36;100846.58;;;1.63;85.75
50310;BME280;36207;51.850;21.698;2022-11-28T07:14:02;100845.21;;;1.60;85.66
50310;BME280;36207;51.850;21.698;2022-11-28T07:16:31;100844.11;;;1.61;85.93
50310;BME280;36207;51.850;21.698;2022-11-28T07:18:58;100842.83;;;1.59;85.72
50310;BME280;36207;51.850;21.698;2022-11-28T07:21:26;100842.54;;;1.61;86.09
50310;BME280;36207;51.850;21.698;2022-11-28T07:23:52;100844.48;;;1.60;86.02
50310;BME280;36207;51.850;21.698;2022-11-28T07:26:20;100842.34;;;1.64;85.89
50310;BME280;36207;51.850;21.698;2022-11-28T07:28:47;100843.79;;;1.68;86.13
50310;BME280;36207;51.850;21.698;2022-11-28T07:31:16;100847.52;;;1.67;86.06
50310;BME280;36207;51.850;21.698;2022-11-28T07:33:45;100845.20;;;1.63;86.02
50310;BME280;36207;51.850;21.698;2022-11-28T07:36:18;100847.77;;;1.61;86.31
50310;BME280;36207;51.850;21.698;2022-11-28T07:38:55;100844.77;;;1.61;86.07
50310;BME280;36207;51.850;21.698;2022-11-28T07:41:22;100843.80;;;1.65;86.11
50310;BME280;36207;51.850;21.698;2022-11-28T07:43:53;100844.63;;;1.66;86.18
50310;BME280;36207;51.850;21.698;2022-11-28T07:46:19;100844.09;;;1.69;86.21
50310;BME280;36207;51.850;21.698;2022-11-28T07:48:46;100844.86;;;1.71;86.62
50310;BME280;36207;51.850;21.698;2022-11-28T07:51:19;100842.45;;;1.70;86.54
50310;BME280;36207;51.850;21.698;2022-11-28T07:53:47;100843.36;;;1.67;86.50
50310;BME280;36207;51.850;21.698;2022-11-28T07:56:16;100841.48;;;1.61;86.49
50310;BME280;36207;51.850;21.698;2022-11-28T07:58:44;100839.52;;;1.59;86.86
50310;BME280;36207;51.850;21.698;2022-11-28T08:01:17;100838.24;;;1.59;86.76
50310;BME280;36207;51.850;21.698;2022-11-28T08:03:44;100839.98;;;1.62;86.94
50310;BME280;36207;51.850;21.698;2022-11-28T08:06:11;100838.35;;;1.60;86.73
50310;BME280;36207;51.850;21.698;2022-11-28T08:08:38;100841.36;;;1.60;86.59
50310;BME280;36207;51.850;21.698;2022-11-28T08:11:06;100837.31;;;1.60;86.88
50310;BME280;36207;51.850;21.698;2022-11-28T08:13:34;100839.49;;;1.62;86.81
50310;BME280;36207;51.850;21.698;2022-11-28T08:16:05;100837.52;;;1.68;86.65
50310;BME280;36207;51.850;21.698;2022-11-28T08:18:33;100841.60;;;1.72;86.67
50310;BME280;36207;51.850;21.698;2022-11-28T08:21:08;100839.29;;;1.73;86.65
50310;BME280;36207;51.850;21.698;2022-11-28T08:23:36;100842.20;;;1.71;86.77
50310;BME280;36207;51.850;21.698;2022-11-28T08:26:04;100842.13;;;1.69;86.88
50310;BME280;36207;51.850;21.698;2022-11-28T08:28:31;100844.02;;;1.70;86.63
50310;BME280;36207;51.850;21.698;2022-11-28T08:30:58;100843.44;;;1.73;86.92
50310;BME280;36207;51.850;21.698;2022-11-28T08:33:26;100839.08;;;1.78;86.83
50310;BME280;36207;51.850;21.698;2022-11-28T08:35:53;100837.95;;;1.85;86.82
50310;BME280;36207;51.850;21.698;2022-11-28T08:38:19;100837.31;;;1.87;86.93
50310;BME280;36207;51.850;21.698;2022-11-28T08:40:45;100838.55;;;1.86;86.62
50310;BME280;36207;51.850;21.698;2022-11-28T08:43:11;100838.18;;;1.87;86.71
50310;BME280;36207;51.850;21.698;2022-11-28T08:45:38;100840.32;;;1.89;86.64
50310;BME280;36207;51.850;21.698;2022-11-28T08:48:04;100842.08;;;1.94;86.71
50310;BME280;36207;51.850;21.698;2022-11-28T08:50:31;100843.64;;;2.02;86.84
50310;BME280;36207;51.850;21.698;2022-11-28T08:52:57;100841.30;;;2.05;86.87
50310;BME280;36207;51.850;21.698;2022-11-28T08:55:23;100839.23;;;2.08;86.59
50310;BME280;36207;51.850;21.698;2022-11-28T08:57:49;100839.59;;;2.07;86.52
50310;BME280;36207;51.850;21.698;2022-11-28T09:00:16;100835.25;;;2.09;86.40
50310;BME280;36207;51.850;21.698;2022-11-28T09:02:42;100833.31;;;2.12;86.57
50310;BME280;36207;51.850;21.698;2022-11-28T09:05:08;100837.67;;;2.10;86.41
50310;BME280;36207;51.850;21.698;2022-11-28T09:07:35;100838.48;;;2.00;86.06
50310;BME280;36207;51.850;21.698;2022-11-28T09:10:02;100837.11;;;1.97;86.27
50310;BME280;36207;51.850;21.698;2022-11-28T09:12:29;100833.52;;;1.93;86.60
50310;BME280;36207;51.850;21.698;2022-11-28T09:14:56;100833.08;;;1.89;86.66
50310;BME280;36207;51.850;21.698;2022-11-28T09:17:22;100828.20;;;1.89;86.27
50310;BME280;36207;51.850;21.698;2022-11-28T09:19:48;100828.30;;;1.87;86.57
50310;BME280;36207;51.850;21.698;2022-11-28T09:22:14;100827.79;;;1.87;86.60
50310;BME280;36207;51.850;21.698;2022-11-28T09:24:41;100823.83;;;1.86;86.38
50310;BME280;36207;51.850;21.698;2022-11-28T09:27:07;100825.70;;;1.90;86.44
50310;BME280;36207;51.850;21.698;2022-11-28T09:29:33;100825.30;;;1.88;86.54
50310;BME280;36207;51.850;21.698;2022-11-28T09:31:59;100825.30;;;1.90;86.37
50310;BME280;36207;51.850;21.698;2022-11-28T09:34:25;100825.14;;;1.95;86.53
50310;BME280;36207;51.850;21.698;2022-11-28T09:36:52;100821.44;;;2.00;86.60
50310;BME280;36207;51.850;21.698;2022-11-28T09:39:18;100817.89;;;2.04;86.57
50310;BME280;36207;51.850;21.698;2022-11-28T09:41:49;100815.38;;;2.05;86.49
50310;BME280;36207;51.850;21.698;2022-11-28T09:44:22;100815.58;;;2.12;86.59
50310;BME280;36207;51.850;21.698;2022-11-28T09:46:52;100814.44;;;2.15;86.39
50310;BME280;36207;51.850;21.698;2022-11-28T09:49:33;100811.95;;;2.16;86.62
50310;BME280;36207;51.850;21.698;2022-11-28T09:57:48;100802.57;;;2.17;86.54
50310;BME280;36207;51.850;21.698;2022-11-28T10:00:19;100803.84;;;2.19;86.60
50310;BME280;36207;51.850;21.698;2022-11-28T10:06:05;100793.77;;;2.22;86.58
50310;BME280;36207;51.850;21.698;2022-11-28T10:11:45;100782.30;;;2.31;86.56
50310;BME280;36207;51.850;21.698;2022-11-28T10:19:59;100776.22;;;2.35;86.41
50310;BME280;36207;51.850;21.698;2022-11-28T10:22:47;100773.61;;;2.34;86.27
50310;BME280;36207;51.850;21.698;2022-11-28T10:25:43;100773.16;;;2.36;86.33
50310;BME280;36207;51.850;21.698;2022-11-28T10:28:16;100769.08;;;2.31;86.22
50310;BME280;36207;51.850;21.698;2022-11-28T10:30:47;100771.08;;;2.28;86.40
50310;BME280;36207;51.850;21.698;2022-11-28T10:36:12;100765.55;;;2.34;86.54
50310;BME280;36207;51.850;21.698;2022-11-28T10:38:41;100765.20;;;2.39;86.52
50310;BME280;36207;51.850;21.698;2022-11-28T10:41:56;100763.79;;;2.37;86.25
50310;BME280;36207;51.850;21.698;2022-11-28T10:44:51;100758.80;;;2.32;86.20
50310;BME280;36207;51.850;21.698;2022-11-28T10:48:00;100756.25;;;2.29;86.13
50310;BME280;36207;51.850;21.698;2022-11-28T10:58:29;100756.36;;;2.37;86.51
50310;BME280;36207;51.850;21.698;2022-11-28T11:00:58;100752.34;;;2.34;86.06
50310;BME280;36207;51.850;21.698;2022-11-28T11:03:28;100749.73;;;2.36;86.23
50310;BME280;36207;51.850;21.698;2022-11-28T11:05:56;100747.80;;;2.39;86.16
50310;BME280;36207;51.850;21.698;2022-11-28T11:08:25;100748.56;;;2.43;86.31
50310;BME280;36207;51.850;21.698;2022-11-28T11:11:01;100746.31;;;2.50;86.37
50310;BME280;36207;51.850;21.698;2022-11-28T11:13:31;100747.75;;;2.54;86.21
50310;BME280;36207;51.850;21.698;2022-11-28T11:16:03;100747.63;;;2.51;85.94
50310;BME280;36207;51.850;21.698;2022-11-28T11:21:21;100747.17;;;2.60;86.22
50310;BME280;36207;51.850;21.698;2022-11-28T11:23:50;100741.58;;;2.69;86.37
50310;BME280;36207;51.850;21.698;2022-11-28T11:26:38;100738.43;;;2.74;86.02
50310;BME280;36207;51.850;21.698;2022-11-28T11:29:22;100739.52;;;2.76;85.78
50310;BME280;36207;51.850;21.698;2022-11-28T11:31:50;100738.27;;;2.76;85.81
50310;BME280;36207;51.850;21.698;2022-11-28T11:34:20;100736.98;;;2.77;85.54
50310;BME280;36207;51.850;21.698;2022-11-28T11:36:48;100736.31;;;2.81;85.74
50310;BME280;36207;51.850;21.698;2022-11-28T11:39:19;100739.92;;;2.87;85.87
50310;BME280;36207;51.850;21.698;2022-11-28T11:44:32;100743.12;;;2.89;85.44
50310;BME280;36207;51.850;21.698;2022-11-28T11:47:07;100742.57;;;2.92;85.71
50310;BME280;36207;51.850;21.698;2022-11-28T11:49:42;100746.05;;;3.00;85.50
50310;BME280;36207;51.850;21.698;2022-11-28T11:54:39;100743.73;;;2.95;84.97
50310;BME280;36207;51.850;21.698;2022-11-28T11:57:19;100746.67;;;2.96;85.10
50310;BME280;36207;51.850;21.698;2022-11-28T11:59:53;100744.91;;;2.94;84.96
50310;BME280;36207;51.850;21.698;2022-11-28T12:02:58;100744.31;;;2.92;84.67
50310;BME280;36207;51.850;21.698;2022-11-28T12:05:27;100741.17;;;2.89;84.62
50310;BME280;36207;51.850;21.698;2022-11-28T12:08:10;100742.85;;;2.88;84.81
50310;BME280;36207;51.850;21.698;2022-11-28T12:11:12;100744.79;;;2.88;84.42
50310;BME280;36207;51.850;21.698;2022-11-28T12:13:36;100744.83;;;2.85;84.58
50310;BME280;36207;51.850;21.698;2022-11-28T12:34:00;100736.25;;;3.18;85.28
50310;BME280;36207;51.850;21.698;2022-11-28T12:41:41;100734.69;;;3.39;85.20
50310;BME280;36207;51.850;21.698;2022-11-28T12:47:39;100738.59;;;3.43;84.36
50310;BME280;36207;51.850;21.698;2022-11-28T12:50:39;100737.36;;;3.41;84.83
50310;BME280;36207;51.850;21.698;2022-11-28T12:59:26;100736.05;;;3.49;84.89
50310;BME280;36207;51.850;21.698;2022-11-28T13:10:25;100735.86;;;3.47;83.87
50310;BME280;36207;51.850;21.698;2022-11-28T13:13:18;100733.16;;;3.46;83.91
50310;BME280;36207;51.850;21.698;2022-11-28T13:16:13;100729.69;;;3.45;84.09
50310;BME280;36207;51.850;21.698;2022-11-28T13:18:48;100730.34;;;3.43;84.01
50310;BME280;36207;51.850;21.698;2022-11-28T13:35:51;100726.71;;;3.49;84.23
50310;BME280;36207;51.850;21.698;2022-11-28T13:38:29;100724.92;;;3.52;84.33
50310;BME280;36207;51.850;21.698;2022-11-28T13:44:00;100726.02;;;3.56;84.43
50310;BME280;36207;51.850;21.698;2022-11-28T13:46:29;100728.09;;;3.56;84.19
50310;BME280;36207;51.850;21.698;2022-11-28T13:48:59;100729.18;;;3.54;84.13
50310;BME280;36207;51.850;21.698;2022-11-28T13:51:29;100726.18;;;3.49;83.90
50310;BME280;36207;51.850;21.698;2022-11-28T13:57:05;100727.69;;;3.46;84.03
50310;BME280;36207;51.850;21.698;2022-11-28T13:59:36;100726.42;;;3.44;84.03
50310;BME280;36207;51.850;21.698;2022-11-28T14:02:18;100729.36;;;3.42;83.99
50310;BME280;36207;51.850;21.698;2022-11-28T14:04:47;100727.52;;;3.41;83.90
50310;BME280;36207;51.850;21.698;2022-11-28T14:07:23;100723.51;;;3.38;83.84
50310;BME280;36207;51.850;21.698;2022-11-28T14:18:24;100717.11;;;3.34;83.91
50310;BME280;36207;51.850;21.698;2022-11-28T14:20:58;100717.13;;;3.32;83.75
50310;BME280;36207;51.850;21.698;2022-11-28T14:23:30;100716.17;;;3.28;83.82
50310;BME280;36207;51.850;21.698;2022-11-28T14:26:00;100715.90;;;3.25;83.76
50310;BME280;36207;51.850;21.698;2022-11-28T14:28:33;100716.33;;;3.24;83.91
50310;BME280;36207;51.850;21.698;2022-11-28T14:31:27;100710.87;;;3.24;83.84
50310;BME280;36207;51.850;21.698;2022-11-28T14:34:05;100712.39;;;3.22;83.79
50310;BME280;36207;51.850;21.698;2022-11-28T14:36:34;100712.52;;;3.23;83.80
50310;BME280;36207;51.850;21.698;2022-11-28T14:44:53;100704.45;;;3.15;83.57
50310;BME280;36207;51.850;21.698;2022-11-28T14:52:42;100705.82;;;3.11;83.55
50310;BME280;36207;51.850;21.698;2022-11-28T14:57:38;100703.80;;;3.00;83.39
50310;BME280;36207;51.850;21.698;2022-11-28T15:06:28;100703.08;;;2.86;83.27
50310;BME280;36207;51.850;21.698;2022-11-28T15:12:23;100704.55;;;2.83;83.46
50310;BME280;36207;51.850;21.698;2022-11-28T15:14:55;100704.52;;;2.81;83.25
50310;BME280;36207;51.850;21.698;2022-11-28T15:17:27;100703.67;;;2.78;83.13
50310;BME280;36207;51.850;21.698;2022-11-28T15:19:58;100703.02;;;2.75;83.31
50310;BME280;36207;51.850;21.698;2022-11-28T15:22:37;100702.31;;;2.73;83.29
50310;BME280;36207;51.850;21.698;2022-11-28T15:25:23;100701.71;;;2.72;83.35
50310;BME280;36207;51.850;21.698;2022-11-28T15:27:50;100697.41;;;2.72;83.38
50310;BME280;36207;51.850;21.698;2022-11-28T15:30:22;100698.17;;;2.69;83.27
50310;BME280;36207;51.850;21.698;2022-11-28T15:32:59;100695.45;;;2.67;83.39
50310;BME280;36207;51.850;21.698;2022-11-28T15:35:26;100696.58;;;2.64;83.13
50310;BME280;36207;51.850;21.698;2022-11-28T15:37:54;100698.77;;;2.56;82.93
50310;BME280;36207;51.850;21.698;2022-11-28T15:40:26;100701.39;;;2.49;83.00
50310;BME280;36207;51.850;21.698;2022-11-28T15:42:54;100701.55;;;2.44;82.86
50310;BME280;36207;51.850;21.698;2022-11-28T15:45:29;100703.03;;;2.41;82.94
50310;BME280;36207;51.850;21.698;2022-11-28T15:47:56;100707.89;;;2.37;82.95
50310;BME280;36207;51.850;21.698;2022-11-28T15:50:27;100706.71;;;2.29;82.67
50310;BME280;36207;51.850;21.698;2022-11-28T15:52:59;100705.92;;;2.20;82.73
50310;BME280;36207;51.850;21.698;2022-11-28T15:55:31;100707.02;;;2.17;82.93
50310;BME280;36207;51.850;21.698;2022-11-28T15:58:20;100711.05;;;2.17;82.83
50310;BME280;36207;51.850;21.698;2022-11-28T16:03:42;100712.13;;;2.14;82.87
50310;BME280;36207;51.850;21.698;2022-11-28T16:06:10;100714.57;;;2.07;82.67